Time;durP1;ratioP1;P1;durP2;ratioP2;P2;SDS_P1;SDS_P2;PMS_P1;PMS_P2;Temp;Humidity;BMP_temperature;BMP_pressure;BME280_temperature;BME280_humidity;BME280_pressure;Samples;Min_cycle;Max_cycle;Signal;HPM_P1;HPM_P2
2021/11/22 00:01:33;;;;;;;2.92;1.45;;;18.20;66.10;;;;;;5070717;28;20029;-82
2021/11/22 00:03:58;;;;;;;4.32;1.77;;;18.20;66.10;;;;;;5070600;28;20059;-80
2021/11/22 00:06:24;;;;;;;3.47;1.70;;;18.10;66.00;;;;;;5071140;28;20064;-81
2021/11/22 00:08:50;;;;;;;3.60;1.30;;;18.10;66.00;;;;;;5057322;28;20019;-80
2021/11/22 00:11:16;;;;;;;3.17;1.63;;;18.10;65.90;;;;;;5074741;28;20110;-80
2021/11/22 00:13:41;;;;;;;4.32;1.85;;;18.10;65.90;;;;;;5074185;28;20027;-80
2021/11/22 00:16:07;;;;;;;4.53;1.75;;;18.10;65.70;;;;;;5074621;28;20174;-81
2021/11/22 00:18:33;;;;;;;3.10;1.50;;;18.10;65.70;;;;;;5074251;28;20032;-80
2021/11/22 00:20:58;;;;;;;3.22;1.50;;;18.10;66.00;;;;;;5074558;28;20028;-80
2021/11/22 00:23:24;;;;;;;3.88;1.45;;;18.10;66.30;;;;;;5074020;28;20021;-81
2021/11/22 00:25:50;;;;;;;3.95;1.30;;;18.10;66.60;;;;;;5074854;28;20067;-82
2021/11/22 00:28:15;;;;;;;4.15;1.75;;;18.10;66.80;;;;;;5074422;28;20027;-81
2021/11/22 00:30:41;;;;;;;3.45;1.65;;;18.10;66.90;;;;;;5074056;28;20039;-80
2021/11/22 00:33:10;;;;;;;4.00;1.67;;;18.10;67.00;;;;;;5073939;28;20017;-80
2021/11/22 00:35:35;;;;;;;3.58;1.45;;;18.10;67.00;;;;;;5073943;28;20081;-81
2021/11/22 00:38:05;;;;;;;3.25;1.38;;;18.10;67.00;;;;;;5074277;28;20012;-80
2021/11/22 00:40:33;;;;;;;3.58;1.27;;;18.10;67.10;;;;;;5073766;28;20043;-80
2021/11/22 00:42:59;;;;;;;3.05;1.15;;;18.10;67.10;;;;;;5073834;28;20439;-80
2021/11/22 00:45:27;;;;;;;3.10;1.40;;;18.10;67.00;;;;;;5073519;28;20021;-81
2021/11/22 00:47:53;;;;;;;2.78;1.40;;;18.10;67.00;;;;;;5074171;28;20033;-80
2021/11/22 00:50:19;;;;;;;2.40;1.52;;;18.10;67.00;;;;;;5073858;28;20507;-80
2021/11/22 00:52:45;;;;;;;3.30;1.70;;;18.10;67.00;;;;;;5073640;28;20036;-81
2021/11/22 00:55:11;;;;;;;4.57;1.70;;;18.10;67.00;;;;;;5073811;28;20017;-79
2021/11/22 00:57:37;;;;;;;3.67;1.50;;;18.10;67.00;;;;;;5073333;28;20037;-81
2021/11/22 01:00:06;;;;;;;3.60;1.33;;;18.10;66.90;;;;;;5073794;28;20036;-80
2021/11/22 01:02:32;;;;;;;2.78;1.48;;;18.10;66.90;;;;;;5073508;28;20024;-80
2021/11/22 01:04:58;;;;;;;2.85;1.27;;;18.10;66.80;;;;;;5073850;28;20081;-80
2021/11/22 01:07:24;;;;;;;3.70;1.58;;;18.10;66.80;;;;;;5073289;28;20377;-80
2021/11/22 01:09:49;;;;;;;3.72;1.50;;;18.10;66.80;;;;;;5073516;28;20028;-80
2021/11/22 01:12:15;;;;;;;2.78;1.63;;;18.10;66.70;;;;;;5071963;28;20039;-81
2021/11/22 01:14:41;;;;;;;3.58;1.75;;;18.10;66.70;;;;;;5073294;28;20053;-80
2021/11/22 01:17:06;;;;;;;4.20;1.58;;;18.10;66.60;;;;;;5073374;28;20111;-80
2021/11/22 01:19:32;;;;;;;3.03;1.45;;;18.10;66.60;;;;;;5073211;28;20013;-81
2021/11/22 01:21:58;;;;;;;5.28;1.50;;;18.10;66.60;;;;;;5073367;28;20044;-80
2021/11/22 01:24:24;;;;;;;4.25;1.58;;;18.10;66.60;;;;;;5073237;28;20491;-79
2021/11/22 01:26:50;;;;;;;4.78;1.75;;;18.00;66.40;;;;;;5073374;28;20029;-82
2021/11/22 01:29:15;;;;;;;4.78;1.50;;;18.00;66.40;;;;;;5073254;28;20024;-79
2021/11/22 01:31:41;;;;;;;3.63;1.52;;;18.00;66.30;;;;;;5072811;28;20079;-80
2021/11/22 01:34:06;;;;;;;3.17;1.25;;;18.00;66.20;;;;;;5073250;28;20028;-79
2021/11/22 01:36:32;;;;;;;3.63;1.65;;;18.00;66.30;;;;;;5072802;28;20476;-80
2021/11/22 01:38:58;;;;;;;4.07;1.60;;;18.00;66.20;;;;;;5072861;28;20104;-79
2021/11/22 01:41:23;;;;;;;4.32;1.88;;;18.00;66.20;;;;;;5072616;28;20025;-79
2021/11/22 01:43:49;;;;;;;3.47;1.77;;;18.00;66.20;;;;;;5073276;28;20091;-79
2021/11/22 01:46:20;;;;;;;3.65;1.42;;;18.00;66.10;;;;;;5072836;28;20450;-79
2021/11/22 01:48:47;;;;;;;4.03;1.33;;;18.00;66.20;;;;;;5072433;28;20020;-80
2021/11/22 01:51:12;;;;;;;2.35;1.20;;;18.00;66.00;;;;;;5072515;28;20040;-80
2021/11/22 01:53:38;;;;;;;3.85;1.55;;;18.00;66.20;;;;;;5054293;28;20107;-80
2021/11/22 01:56:04;;;;;;;2.63;1.05;;;18.00;66.10;;;;;;5072490;28;20034;-79
2021/11/22 01:58:30;;;;;;;4.20;1.50;;;18.00;66.00;;;;;;5072434;28;20017;-80
2021/11/22 02:00:56;;;;;;;3.78;1.52;;;18.00;66.00;;;;;;5072521;28;20048;-80
2021/11/22 02:03:22;;;;;;;2.72;1.45;;;18.10;66.00;;;;;;5072718;28;20102;-80
2021/11/22 02:05:52;;;;;;;3.17;1.13;;;18.10;66.00;;;;;;5072761;28;20032;-81
2021/11/22 02:08:20;;;;;;;3.15;1.20;;;18.00;65.80;;;;;;5072468;28;20025;-80
2021/11/22 02:10:47;;;;;;;2.92;1.15;;;18.00;65.80;;;;;;5071789;28;20032;-80
2021/11/22 02:13:13;;;;;;;4.18;1.27;;;18.10;65.90;;;;;;5072304;28;20016;-80
2021/11/22 02:15:39;;;;;;;3.80;1.08;;;18.00;65.80;;;;;;5072167;28;20055;-80
2021/11/22 02:18:05;;;;;;;4.10;1.42;;;18.10;65.80;;;;;;5072256;28;20023;-82
2021/11/22 02:20:32;;;;;;;2.88;1.17;;;18.10;65.70;;;;;;5072057;28;20103;-80
2021/11/22 02:23:02;;;;;;;5.63;1.48;;;18.10;65.60;;;;;;5071999;28;20024;-81
2021/11/22 02:25:30;;;;;;;2.88;1.30;;;18.10;65.60;;;;;;5071578;28;20539;-81
2021/11/22 02:27:56;;;;;;;2.63;1.25;;;18.10;65.60;;;;;;5072042;28;20023;-80
2021/11/22 02:30:32;;;;;;;3.72;1.60;;;18.10;65.60;;;;;;5071848;28;20039;-84
2021/11/22 02:33:05;;;;;;;;;;;18.10;65.50;;;;;;5072260;28;20100;-85
2021/11/22 02:35:32;;;;;;;2.90;1.25;;;18.10;65.40;;;;;;5071667;28;19911;-85
2021/11/22 02:37:58;;;;;;;4.57;1.60;;;18.10;65.50;;;;;;5071865;28;20522;-86
2021/11/22 02:40:24;;;;;;;3.33;1.27;;;18.10;65.30;;;;;;5071670;28;20028;-85
2021/11/22 02:42:49;;;;;;;3.38;1.10;;;18.10;65.30;;;;;;5072125;28;20016;-86
2021/11/22 02:45:18;;;;;;;3.25;1.48;;;18.10;65.30;;;;;;5071669;28;20388;-84
2021/11/22 02:47:46;;;;;;;3.22;1.35;;;18.10;65.30;;;;;;5071343;28;20017;-86
2021/11/22 02:50:13;;;;;;;3.50;1.20;;;18.10;65.30;;;;;;5071313;28;20036;-86
2021/11/22 02:52:40;;;;;;;5.05;1.60;;;18.10;65.30;;;;;;5071335;28;20019;-85
2021/11/22 02:55:09;;;;;;;2.20;1.00;;;18.10;65.20;;;;;;5071736;28;20024;-83
2021/11/22 02:57:34;;;;;;;5.78;1.70;;;18.10;65.20;;;;;;5077917;28;20043;-80
2021/11/22 03:00:00;;;;;;;4.82;1.50;;;18.10;65.20;;;;;;5077212;28;20473;-80
2021/11/22 03:02:26;;;;;;;4.85;1.50;;;18.10;65.10;;;;;;5071306;28;20491;-79
2021/11/22 03:04:52;;;;;;;5.63;1.38;;;18.10;65.10;;;;;;5084237;28;20035;-80
2021/11/22 03:07:18;;;;;;;4.85;1.58;;;18.10;65.70;;;;;;5076498;28;20073;-79
2021/11/22 03:09:44;;;;;;;4.15;1.58;;;18.10;65.00;;;;;;5091333;28;20429;-80
2021/11/22 03:12:12;;;;;;;3.35;1.40;;;18.10;65.00;;;;;;5091191;28;20036;-80
2021/11/22 03:14:39;;;;;;;4.43;1.50;;;18.10;65.00;;;;;;5091416;28;20045;-79
2021/11/22 03:17:05;;;;;;;4.97;1.30;;;18.10;64.90;;;;;;5091537;28;20028;-80
2021/11/22 03:19:30;;;;;;;3.80;1.70;;;18.10;65.00;;;;;;5080544;28;20066;-80
2021/11/22 03:21:58;;;;;;;3.08;1.30;;;18.10;64.90;;;;;;5091567;28;20012;-80
2021/11/22 03:24:25;;;;;;;3.30;1.35;;;18.10;64.90;;;;;;5072088;28;20032;-80
2021/11/22 03:26:51;;;;;;;4.05;1.40;;;18.10;65.00;;;;;;5072947;28;20389;-80
2021/11/22 03:29:17;;;;;;;5.38;1.50;;;18.10;64.70;;;;;;5073938;28;20028;-80
2021/11/22 03:31:42;;;;;;;4.78;1.55;;;18.10;64.80;;;;;;5070626;28;20123;-79
2021/11/22 03:34:11;;;;;;;3.75;1.42;;;18.10;64.70;;;;;;5071986;28;20075;-80
2021/11/22 03:36:37;;;;;;;4.68;1.45;;;18.10;64.60;;;;;;5073575;28;20059;-80
2021/11/22 03:39:10;;;;;;;3.78;1.30;;;18.10;64.70;;;;;;5091383;28;20024;-80
2021/11/22 03:41:36;;;;;;;4.88;1.40;;;18.10;64.60;;;;;;5091989;28;20024;-80
2021/11/22 03:44:13;;;;;;;4.47;1.50;;;18.10;64.60;;;;;;5095652;28;20496;-79
2021/11/22 03:46:44;;;;;;;3.47;1.27;;;18.10;64.50;;;;;;5095017;28;20039;-79
2021/11/22 03:49:10;;;;;;;4.22;1.52;;;18.10;65.20;;;;;;5093443;28;20162;-79
2021/11/22 03:51:36;;;;;;;3.28;1.55;;;18.10;64.50;;;;;;5095255;28;20119;-79
2021/11/22 03:54:02;;;;;;;2.55;1.10;;;18.10;64.50;;;;;;5095331;28;20503;-80
2021/11/22 03:56:28;;;;;;;3.25;1.17;;;18.10;64.40;;;;;;5090763;28;20178;-80
2021/11/22 03:58:54;;;;;;;3.53;1.08;;;18.10;64.50;;;;;;5085230;28;20016;-80
2021/11/22 04:01:19;;;;;;;3.72;1.02;;;18.10;64.50;;;;;;5067559;28;20396;-80
2021/11/22 04:03:45;;;;;;;3.90;1.50;;;18.10;64.40;;;;;;5074482;28;20048;-79
2021/11/22 04:06:12;;;;;;;3.38;1.10;;;18.10;64.60;;;;;;5074910;28;20036;-80
2021/11/22 04:08:38;;;;;;;4.50;1.50;;;18.10;64.40;;;;;;5074620;28;20021;-80
2021/11/22 04:11:03;;;;;;;3.88;1.25;;;18.10;64.30;;;;;;5074696;28;20078;-79
2021/11/22 04:13:29;;;;;;;2.65;1.02;;;18.10;64.30;;;;;;5074277;28;20020;-79
2021/11/22 04:15:55;;;;;;;3.85;1.52;;;18.10;64.30;;;;;;5074638;28;20033;-79
2021/11/22 04:18:21;;;;;;;3.25;1.25;;;18.10;64.30;;;;;;5075881;28;20037;-80
2021/11/22 04:20:46;;;;;;;3.10;1.45;;;18.10;65.00;;;;;;5074444;28;20111;-79
2021/11/22 04:23:13;;;;;;;3.80;1.20;;;18.10;64.00;;;;;;5074563;28;20509;-78
2021/11/22 04:25:38;;;;;;;4.65;1.40;;;18.20;64.30;;;;;;5094547;28;20024;-79
2021/11/22 04:28:06;;;;;;;3.05;1.25;;;18.10;64.20;;;;;;5094610;28;20390;-80
2021/11/22 04:30:32;;;;;;;3.95;1.40;;;18.10;64.10;;;;;;5094174;28;20032;-80
2021/11/22 04:32:59;;;;;;;3.28;1.17;;;18.10;64.00;;;;;;5086452;28;20036;-80
2021/11/22 04:35:25;;;;;;;4.10;1.42;;;18.10;64.00;;;;;;5080748;28;20100;-80
2021/11/22 04:37:50;;;;;;;5.25;2.08;;;18.20;64.10;;;;;;5080890;28;20484;-80
2021/11/22 04:40:18;;;;;;;4.78;1.70;;;18.20;64.10;;;;;;5092619;28;20028;-80
2021/11/22 04:42:47;;;;;;;3.05;1.20;;;18.20;64.00;;;;;;5077617;28;20037;-79
2021/11/22 04:45:15;;;;;;;4.28;1.45;;;18.20;64.00;;;;;;5073770;28;20044;-80
2021/11/22 04:47:42;;;;;;;3.67;1.17;;;18.20;64.00;;;;;;5088676;28;20493;-79
2021/11/22 04:50:08;;;;;;;2.72;1.30;;;18.20;63.90;;;;;;5076164;28;20082;-80
2021/11/22 04:52:34;;;;;;;3.15;1.38;;;18.20;63.90;;;;;;5087704;28;20063;-80
2021/11/22 04:55:00;;;;;;;4.30;1.35;;;18.20;63.90;;;;;;5093824;28;20073;-79
2021/11/22 04:57:26;;;;;;;3.20;1.20;;;18.20;63.80;;;;;;5082643;28;20023;-79
2021/11/22 04:59:52;;;;;;;3.95;1.52;;;18.20;63.70;;;;;;5090689;28;20027;-79
2021/11/22 05:02:18;;;;;;;2.28;1.13;;;18.20;63.70;;;;;;5073879;28;20501;-80
2021/11/22 05:04:43;;;;;;;3.85;1.40;;;18.20;63.70;;;;;;5089179;28;20099;-80
2021/11/22 05:07:09;;;;;;;3.70;1.25;;;18.20;63.60;;;;;;5078677;28;20150;-81
2021/11/22 05:09:35;;;;;;;3.45;1.38;;;18.20;63.50;;;;;;5082041;28;20105;-81
2021/11/22 05:12:01;;;;;;;5.63;1.75;;;18.20;63.60;;;;;;5091824;28;20523;-80
2021/11/22 05:14:27;;;;;;;4.03;1.75;;;18.20;63.60;;;;;;5093224;28;20021;-79
2021/11/22 05:16:53;;;;;;;3.55;1.50;;;18.20;63.50;;;;;;5084894;28;20032;-80
2021/11/22 05:19:19;;;;;;;4.95;1.60;;;18.20;63.50;;;;;;5073837;28;20031;-80
2021/11/22 05:21:45;;;;;;;3.22;1.17;;;18.20;63.60;;;;;;5073108;28;20033;-80
2021/11/22 05:24:11;;;;;;;3.28;1.30;;;18.20;63.50;;;;;;5073522;28;20357;-79
2021/11/22 05:26:38;;;;;;;2.53;0.90;;;18.20;63.40;;;;;;5079889;28;20028;-81
2021/11/22 05:29:05;;;;;;;5.03;1.73;;;18.20;63.40;;;;;;5085285;28;20546;-79
2021/11/22 05:31:32;;;;;;;2.90;1.30;;;18.20;63.40;;;;;;5073473;28;20040;-81
2021/11/22 05:33:58;;;;;;;5.07;1.20;;;18.20;63.40;;;;;;5093607;28;20026;-80
2021/11/22 05:36:24;;;;;;;4.50;1.15;;;18.20;63.40;;;;;;5092823;28;20077;-80
2021/11/22 05:38:50;;;;;;;4.32;1.58;;;18.20;63.30;;;;;;5089214;28;20033;-79
2021/11/22 05:41:16;;;;;;;3.80;1.30;;;18.20;63.30;;;;;;5077175;28;20028;-80
2021/11/22 05:43:41;;;;;;;4.47;1.50;;;18.20;63.30;;;;;;5093012;28;20426;-84
2021/11/22 05:46:10;;;;;;;3.78;1.75;;;18.20;63.30;;;;;;5092793;28;20085;-80
2021/11/22 05:48:36;;;;;;;4.85;1.38;;;18.20;63.20;;;;;;5092938;28;20021;-80
2021/11/22 05:51:03;;;;;;;2.75;1.15;;;18.20;63.10;;;;;;5083246;28;20036;-80
2021/11/22 05:53:33;;;;;;;3.47;1.08;;;18.20;63.10;;;;;;5059360;28;20020;-79
2021/11/22 05:56:03;;;;;;;4.93;1.40;;;18.20;63.00;;;;;;5091177;28;20028;-84
2021/11/22 05:58:31;;;;;;;3.05;1.20;;;18.20;63.00;;;;;;5052535;28;20029;-83
2021/11/22 06:01:01;;;;;;;3.17;1.23;;;18.20;62.80;;;;;;5083073;28;20039;-81
2021/11/22 06:03:28;;;;;;;3.85;1.25;;;18.30;62.80;;;;;;5074541;28;20024;-83
2021/11/22 06:05:54;;;;;;;4.35;1.48;;;18.30;62.70;;;;;;5087689;28;20099;-83
2021/11/22 06:08:20;;;;;;;2.83;1.05;;;18.20;62.70;;;;;;5072581;28;20029;-82
2021/11/22 06:10:46;;;;;;;4.65;1.63;;;18.30;62.80;;;;;;5084404;28;20480;-85
2021/11/22 06:13:13;;;;;;;1.80;0.90;;;18.30;62.70;;;;;;5081638;28;20119;-84
2021/11/22 06:15:39;;;;;;;3.50;0.95;;;18.30;62.60;;;;;;5083690;28;20063;-84
2021/11/22 06:18:05;;;;;;;2.92;1.23;;;18.30;62.60;;;;;;5090443;28;20454;-84
2021/11/22 06:20:32;;;;;;;4.22;1.67;;;18.30;62.50;;;;;;5071809;28;20052;-85
2021/11/22 06:22:57;;;;;;;3.35;1.17;;;18.30;62.60;;;;;;5072155;28;20085;-85
2021/11/22 06:25:23;;;;;;;2.83;0.85;;;18.40;62.60;;;;;;5072007;28;20025;-80
2021/11/22 06:27:50;;;;;;;2.90;1.13;;;18.30;62.50;;;;;;5086305;28;20020;-86
2021/11/22 06:30:16;;;;;;;2.88;1.40;;;18.40;62.60;;;;;;5093029;28;20032;-90
2021/11/22 06:32:42;;;;;;;3.13;1.08;;;18.40;62.60;;;;;;5086959;28;20036;-83
2021/11/22 06:35:08;;;;;;;1.92;0.98;;;18.40;62.50;;;;;;5072278;28;20020;-90
2021/11/22 06:37:35;;;;;;;2.67;0.90;;;18.40;62.50;;;;;;5071936;28;20052;-89
2021/11/22 06:40:07;;;;;;;3.55;1.30;;;18.40;62.60;;;;;;5076422;28;20031;-88
2021/11/22 06:42:33;;;;;;;4.10;1.30;;;18.40;62.50;;;;;;5079037;28;20025;-88
2021/11/22 06:44:58;;;;;;;1.92;1.02;;;18.40;62.50;;;;;;5071990;28;20023;-88
2021/11/22 06:47:25;;;;;;;3.20;0.90;;;18.40;62.30;;;;;;5078258;28;20036;-84
2021/11/22 06:49:52;;;;;;;2.83;1.20;;;18.40;62.20;;;;;;5087688;28;20031;-85
2021/11/22 06:52:20;;;;;;;3.28;1.23;;;18.40;62.50;;;;;;5071361;28;20033;-88
2021/11/22 06:54:48;;;;;;;4.00;1.20;;;18.40;62.50;;;;;;5071895;28;20040;-82
2021/11/22 06:57:14;;;;;;;2.83;1.10;;;18.50;62.60;;;;;;5071666;28;20078;-83
2021/11/22 06:59:42;;;;;;;4.20;1.00;;;18.50;62.60;;;;;;5074477;28;20059;-83
2021/11/22 07:02:12;;;;;;;2.92;0.85;;;18.50;62.90;;;;;;5089739;28;20024;-84
2021/11/22 07:04:38;;;;;;;2.60;0.88;;;18.50;63.10;;;;;;5074848;28;20400;-83
2021/11/22 07:07:04;;;;;;;2.80;0.80;;;18.50;63.30;;;;;;5071385;28;20027;-84
2021/11/22 07:09:30;;;;;;;5.07;1.17;;;18.50;63.40;;;;;;5072241;28;20024;-83
2021/11/22 07:11:56;;;;;;;8.88;1.23;;;18.60;63.50;;;;;;5072270;28;20068;-83
2021/11/22 07:14:22;;;;;;;2.38;0.90;;;18.60;63.50;;;;;;5071681;28;20024;-82
2021/11/22 07:16:49;;;;;;;3.70;0.90;;;18.60;63.60;;;;;;5071043;28;20107;-82
2021/11/22 07:19:15;;;;;;;2.65;0.85;;;18.50;63.40;;;;;;5083761;28;20552;-85
2021/11/22 07:21:41;;;;;;;3.50;1.08;;;18.50;63.50;;;;;;5079918;28;20020;-83
2021/11/22 07:24:07;;;;;;;2.22;0.88;;;18.60;64.30;;;;;;5091391;28;20040;-82
2021/11/22 07:26:34;;;;;;;1.77;0.90;;;18.60;63.60;;;;;;5091166;28;20502;-82
2021/11/22 07:29:00;;;;;;;3.67;1.08;;;18.50;63.40;;;;;;5091418;28;20032;-82
2021/11/22 07:31:26;;;;;;;3.15;1.08;;;18.50;63.40;;;;;;5091035;28;20491;-82
2021/11/22 07:33:52;;;;;;;2.50;0.90;;;18.60;63.30;;;;;;5091552;28;20101;-83
2021/11/22 07:36:17;;;;;;;3.80;0.93;;;18.50;63.20;;;;;;5091449;28;20020;-82
2021/11/22 07:38:43;;;;;;;3.45;0.70;;;18.60;63.20;;;;;;5089037;28;20085;-82
2021/11/22 07:41:09;;;;;;;2.63;0.98;;;18.50;63.20;;;;;;5074665;28;20565;-86
2021/11/22 07:43:35;;;;;;;3.15;1.15;;;18.50;62.70;;;;;;5070628;28;20100;-83
2021/11/22 07:46:01;;;;;;;3.42;0.80;;;18.60;62.80;;;;;;5079154;28;20115;-83
2021/11/22 07:48:27;;;;;;;2.83;0.90;;;18.50;62.70;;;;;;5079557;28;20067;-84
2021/11/22 07:50:53;;;;;;;1.15;0.50;;;18.50;62.80;;;;;;5075480;28;20028;-81
2021/11/22 07:53:18;;;;;;;2.83;1.27;;;18.50;62.70;;;;;;5071233;28;20499;-79
2021/11/22 07:55:46;;;;;;;5.25;1.35;;;18.50;62.70;;;;;;5070648;28;20025;-84
2021/11/22 07:58:12;;;;;;;5.65;1.90;;;18.50;62.70;;;;;;5071400;28;20489;-81
2021/11/22 08:00:37;;;;;;;5.78;1.38;;;18.50;62.60;;;;;;5082277;28;20060;-83
2021/11/22 08:03:03;;;;;;;3.20;1.27;;;18.50;62.60;;;;;;5070821;28;20437;-83
2021/11/22 08:05:31;;;;;;;5.95;1.42;;;18.50;62.70;;;;;;5070763;28;20016;-80
2021/11/22 08:07:57;;;;;;;5.88;1.50;;;18.50;62.90;;;;;;5071586;28;20043;-83
2021/11/22 08:10:32;;;;;;;3.70;1.70;;;18.50;63.10;;;;;;5071910;28;20529;-85
2021/11/22 08:13:01;;;;;;;6.05;1.85;;;18.50;63.10;;;;;;5055397;28;20024;-84
2021/11/22 08:15:30;;;;;;;3.17;1.52;;;18.50;63.30;;;;;;5072566;28;20024;-83
2021/11/22 08:17:58;;;;;;;3.15;1.58;;;18.50;63.30;;;;;;5072767;28;20024;-84
2021/11/22 08:20:24;;;;;;;2.47;1.23;;;18.50;63.40;;;;;;5090741;28;20031;-85
2021/11/22 08:22:51;;;;;;;3.72;1.20;;;18.40;63.20;;;;;;5091384;28;20082;-83
2021/11/22 08:25:18;;;;;;;3.10;1.30;;;18.40;63.30;;;;;;5090777;28;20028;-84
2021/11/22 08:27:45;;;;;;;3.35;1.10;;;18.40;62.90;;;;;;5089752;28;20025;-84
2021/11/22 08:30:14;;;;;;;3.30;1.10;;;18.40;62.90;;;;;;5094616;28;20021;-82
2021/11/22 08:32:41;;;;;;;4.43;1.10;;;18.40;62.70;;;;;;5094269;28;20422;-83
2021/11/22 08:35:08;;;;;;;2.90;1.30;;;18.40;62.70;;;;;;5094665;28;20027;-83
2021/11/22 08:37:35;;;;;;;3.95;1.20;;;18.40;62.60;;;;;;5075296;28;20025;-83
2021/11/22 08:40:01;;;;;;;3.08;1.23;;;18.40;62.70;;;;;;5074163;28;20048;-83
2021/11/22 08:42:27;;;;;;;4.10;1.65;;;18.40;62.60;;;;;;5073900;28;20133;-83
2021/11/22 08:44:53;;;;;;;2.97;1.25;;;18.40;62.50;;;;;;5073975;28;20035;-82
2021/11/22 08:47:19;;;;;;;4.03;1.15;;;18.30;62.50;;;;;;5074203;28;20032;-83
2021/11/22 08:49:45;;;;;;;2.72;1.17;;;18.40;62.50;;;;;;5073856;28;20021;-82
2021/11/22 08:52:11;;;;;;;3.55;1.27;;;18.40;62.40;;;;;;5073887;28;20028;-82
2021/11/22 08:54:38;;;;;;;3.22;0.90;;;18.40;62.40;;;;;;5073423;28;20063;-83
2021/11/22 08:57:06;;;;;;;3.63;0.98;;;18.40;62.40;;;;;;5073846;28;20050;-84
2021/11/22 08:59:32;;;;;;;1.60;0.65;;;18.40;62.40;;;;;;5073517;28;20021;-83
2021/11/22 09:01:58;;;;;;;4.22;0.90;;;18.40;62.90;;;;;;5073956;28;20012;-83
2021/11/22 09:04:25;;;;;;;4.80;1.00;;;18.40;62.20;;;;;;5073641;28;20036;-83
2021/11/22 09:06:51;;;;;;;3.97;1.00;;;18.40;62.80;;;;;;5073555;28;20029;-84
2021/11/22 09:09:18;;;;;;;1.58;0.70;;;18.40;62.00;;;;;;5073832;28;20025;-84
2021/11/22 09:11:45;;;;;;;2.58;1.02;;;18.40;62.00;;;;;;5072701;28;20048;-83
2021/11/22 09:14:12;;;;;;;2.33;0.90;;;18.40;61.90;;;;;;5072924;28;20480;-79
2021/11/22 09:16:37;;;;;;;1.83;0.70;;;18.40;61.90;;;;;;5072803;28;20028;-79
2021/11/22 09:19:04;;;;;;;3.92;1.10;;;18.50;61.80;;;;;;5073434;28;20500;-84
2021/11/22 09:21:29;;;;;;;3.40;1.02;;;18.50;61.80;;;;;;5073291;28;20059;-80
2021/11/22 09:23:56;;;;;;;2.20;0.80;;;18.50;61.70;;;;;;5073516;28;20025;-79
2021/11/22 09:26:22;;;;;;;3.25;1.23;;;18.50;61.70;;;;;;5073586;28;20028;-79
2021/11/22 09:28:49;;;;;;;2.65;0.80;;;18.50;61.70;;;;;;5073653;28;20028;-79
2021/11/22 09:31:15;;;;;;;2.67;0.70;;;18.50;61.60;;;;;;5073247;28;20108;-80
2021/11/22 09:33:47;;;;;;;2.85;1.00;;;18.50;61.60;;;;;;5073014;28;20104;-80
2021/11/22 09:36:14;;;;;;;3.60;0.80;;;18.50;61.50;;;;;;5073017;28;20040;-82
2021/11/22 09:38:40;;;;;;;2.05;0.75;;;18.50;61.50;;;;;;5072213;28;20107;-79
2021/11/22 09:41:07;;;;;;;2.28;0.90;;;18.50;61.70;;;;;;5072578;28;20024;-83
2021/11/22 09:43:33;;;;;;;3.38;0.70;;;18.50;61.70;;;;;;5072888;28;20108;-78
2021/11/22 09:45:59;;;;;;;2.58;0.75;;;18.50;61.50;;;;;;5073037;28;20032;-79
2021/11/22 09:48:26;;;;;;;1.95;0.52;;;18.50;61.60;;;;;;5071563;28;20434;-83
2021/11/22 09:50:52;;;;;;;1.80;0.80;;;18.50;61.40;;;;;;5072470;28;20119;-78
2021/11/22 09:53:19;;;;;;;3.22;1.25;;;18.50;61.60;;;;;;5072987;28;20116;-86
2021/11/22 09:55:44;;;;;;;5.57;1.05;;;18.50;61.50;;;;;;5071266;28;20458;-85
2021/11/22 09:58:13;;;;;;;2.53;0.60;;;18.50;61.30;;;;;;5072066;28;20108;-84
2021/11/22 10:00:49;;;;;;;1.95;0.73;;;18.50;61.30;;;;;;5072172;28;20025;-84
2021/11/22 10:03:21;;;;;;;2.35;0.80;;;18.50;61.40;;;;;;5072573;28;20029;-84
2021/11/22 10:05:53;;;;;;;2.83;1.05;;;18.50;61.40;;;;;;5071687;28;20017;-83
2021/11/22 10:08:22;;;;;;;1.95;0.80;;;18.50;61.30;;;;;;5073049;28;20040;-78
2021/11/22 10:10:53;;;;;;;2.38;0.75;;;18.50;61.30;;;;;;5071705;28;20433;-82
2021/11/22 10:13:33;;;;;;;2.45;0.80;;;18.50;61.30;;;;;;5080164;28;20055;-77
2021/11/22 10:16:11;;;;;;;3.92;1.23;;;18.50;61.20;;;;;;5083190;28;20427;-78
2021/11/22 10:18:44;;;;;;;2.22;0.60;;;18.50;61.30;;;;;;5054044;28;20025;-78
2021/11/22 10:21:12;;;;;;;1.92;0.63;;;18.50;61.30;;;;;;5071666;28;20122;-83
2021/11/22 10:23:45;;;;;;;1.23;0.60;;;18.50;61.10;;;;;;5071662;28;20025;-78
2021/11/22 10:26:14;;;;;;;2.55;0.50;;;18.50;61.00;;;;;;5072286;28;20029;-79
2021/11/22 10:28:46;;;;;;;2.40;0.70;;;18.50;61.00;;;;;;5071929;28;20021;-80
2021/11/22 10:31:19;;;;;;;2.20;0.80;;;18.50;61.00;;;;;;5071281;28;20033;-78
2021/11/22 10:33:47;;;;;;;1.50;0.60;;;18.50;60.90;;;;;;5071515;28;20017;-78
2021/11/22 10:36:19;;;;;;;2.90;0.82;;;18.50;60.80;;;;;;5071749;28;20574;-78
2021/11/22 10:38:51;;;;;;;1.65;0.70;;;18.50;60.80;;;;;;5071098;28;20028;-78
2021/11/22 10:41:20;;;;;;;2.78;0.82;;;18.60;60.80;;;;;;5071804;28;20021;-80
2021/11/22 10:44:12;;;;;;;2.10;0.80;;;18.60;60.70;;;;;;5071308;28;20025;-78
2021/11/22 10:46:50;;;;;;;5.55;1.30;;;18.60;60.60;;;;;;5071463;28;20047;-79
2021/11/22 10:52:26;;;;;;;1.88;0.70;;;18.60;60.50;;;;;;5068398;28;20060;-79
2021/11/22 10:55:02;;;;;;;2.55;0.70;;;18.60;60.20;;;;;;5054070;28;20093;-78
2021/11/22 10:57:36;;;;;;;2.03;0.50;;;18.70;60.40;;;;;;5071126;28;20500;-78
2021/11/22 11:00:21;;;;;;;2.13;0.60;;;18.70;60.10;;;;;;5071593;28;20025;-78
2021/11/22 11:02:48;;;;;;;4.28;0.82;;;18.70;60.20;;;;;;5071127;28;20457;-78
2021/11/22 11:05:26;;;;;;;4.28;0.82;;;18.70;60.10;;;;;;5071623;28;20040;-79
2021/11/22 11:08:04;;;;;;;2.85;0.73;;;18.80;60.10;;;;;;5071208;28;20036;-81
2021/11/22 11:10:30;;;;;;;2.05;0.70;;;18.80;60.10;;;;;;5071194;28;20115;-78
2021/11/22 11:12:57;;;;;;;0.98;0.45;;;18.80;59.90;;;;;;5071466;28;20078;-79
2021/11/22 11:15:23;;;;;;;3.25;0.70;;;19.60;59.50;;;;;;5071782;28;20021;-79
2021/11/22 11:17:49;;;;;;;1.90;0.70;;;22.40;54.20;;;;;;5071106;28;20032;-80
2021/11/22 11:20:17;;;;;;;1.75;0.50;;;;;;;;;;5070651;28;20048;-79
2021/11/22 11:22:44;;;;;;;3.63;0.63;;;24.70;49.40;;;;;;5071077;28;20055;-79
2021/11/22 11:25:10;;;;;;;3.33;0.73;;;26.10;47.00;;;;;;5071275;28;20024;-79
2021/11/22 11:27:41;;;;;;;3.08;0.70;;;27.00;45.00;;;;;;5071090;28;20476;-79
2021/11/22 11:30:12;;;;;;;0.98;0.43;;;27.60;43.80;;;;;;5070586;28;20380;-79
2021/11/22 11:32:39;;;;;;;1.80;0.70;;;28.00;42.60;;;;;;5075482;28;20055;-82
2021/11/22 11:35:14;;;;;;;1.25;0.60;;;28.10;42.10;;;;;;5083997;28;20017;-80
2021/11/22 11:38:04;;;;;;;2.60;0.80;;;28.30;41.70;;;;;;5070185;28;20037;-79
2021/11/22 11:41:14;;;;;;;4.45;0.80;;;28.70;41.10;;;;;;5070211;28;20077;-80
2021/11/22 11:43:55;;;;;;;2.58;0.80;;;;;;;;;;5039822;28;20468;-79
2021/11/22 11:46:32;;;;;;;2.03;0.63;;;;;;;;;;5071369;28;20033;-79
2021/11/22 11:48:58;;;;;;;1.50;0.60;;;;;;;;;;5071112;28;20044;-80
2021/11/22 11:51:35;;;;;;;2.80;0.70;;;;;;;;;;5070792;28;20044;-80
2021/11/22 11:54:04;;;;;;;2.05;0.60;;;;;;;;;;5063903;28;20119;-78
2021/11/22 11:56:30;;;;;;;1.52;0.47;;;;;;;;;;5070686;28;20020;-78
2021/11/22 11:59:12;;;;;;;1.65;0.60;;;;;;;;;;5070954;28;20021;-78
2021/11/22 12:01:59;;;;;;;1.75;0.60;;;;;;;;;;5052718;28;20059;-80
2021/11/22 12:04:25;;;;;;;1.80;0.70;;;;;;;;;;5074720;28;20477;-80
2021/11/22 12:06:52;;;;;;;2.47;0.57;;;;;;;;;;5075246;28;20028;-80
2021/11/22 12:09:27;;;;;;;1.85;0.60;;;;;;;;;;5075151;28;20060;-80
2021/11/22 12:11:53;;;;;;;2.88;0.60;;;;;;;;;;5056834;28;20139;-79
2021/11/22 12:14:42;;;;;;;1.52;0.50;;;;;;;;;;5057134;28;20052;-79
2021/11/22 12:17:08;;;;;;;0.95;0.50;;;;;;;;;;5064016;28;20044;-80
2021/11/22 12:19:34;;;;;;;2.50;0.65;;;;;;;;;;5074422;28;20525;-80
2021/11/22 12:22:12;;;;;;;2.15;0.70;;;;;;;;;;5074645;28;20016;-80
2021/11/22 12:24:39;;;;;;;1.45;0.50;;;;;;;;;;5074309;28;20028;-80
2021/11/22 12:27:23;;;;;;;1.38;0.52;;;;;;;;;;5074177;28;20391;-80
2021/11/22 12:29:49;;;;;;;1.83;0.60;;;;;;;;;;5054744;28;20507;-80
2021/11/22 12:32:25;;;;;;;0.93;0.50;;;;;;;;;;5054277;28;20040;-80
2021/11/22 12:34:59;;;;;;;1.42;0.55;;;;;;;;;;5054717;28;20017;-80
2021/11/22 12:37:26;;;;;;;2.28;0.35;;;;;;;;;;5054147;28;20036;-78
2021/11/22 12:39:52;;;;;;;1.27;0.43;;;;;;;;;;5054577;28;20021;-78
2021/11/22 12:42:21;;;;;;;2.13;0.60;;;;;;;;;;5054520;28;20056;-78
2021/11/22 12:44:59;;;;;;;1.52;0.50;;;;;;;;;;5053889;28;20032;-78
2021/11/22 12:47:26;;;;;;;2.00;0.60;;;;;;;;;;5053576;28;20416;-78
2021/11/22 12:50:05;;;;;;;1.42;0.50;;;;;;;;;;5054522;28;20096;-77
2021/11/22 12:52:32;;;;;;;1.13;0.70;;;;;;;;;;5053736;28;20500;-78
2021/11/22 12:55:21;;;;;;;1.65;0.65;;;;;;;;;;5054013;28;20102;-78
2021/11/22 12:57:50;;;;;;;1.55;0.47;;;;;;;;;;5048490;28;20516;-78
2021/11/22 13:00:20;;;;;;;1.15;0.63;;;;;;;;;;5053868;28;20099;-78
2021/11/22 13:02:58;;;;;;;3.35;1.65;;;27.80;39.90;;;;;;5038552;28;20028;-78
2021/11/22 13:05:42;;;;;;;5.28;1.42;;;25.80;42.80;;;;;;5073669;28;20032;-78